Tuesday, January 22, 2019 (09:22 UTC)
OPMET DATA
 
Terminal Aerodrome Forecast (TAF) and METAR
TAFs are issued by Aviation Meteorological Office, for Abu Dhabi (OMAA), Bateen (OMAD), Al Ain (OMAL), Dubai (OMDB), Al Maktoum (OMDW), Sharjah (OMSJ), Ras Al Khaimah (OMRK) and Fujairah (OMFJ) airports. These TAFs are issued every 6 hours and are valid for a 30 hour period. METARs (Aviation Routine Weather Reports) are updated hourly.
Show ICAO codes
Select OPMET type:        SEARCH   PRINT
Aviation Meteorology - National Center of Meteorology (NCM)
Telephone: +971 2 5757346 / 5053676
Email: metweb@adiamet.gov.ae
Website: www.avmet.ae
METAR OMAA 220900Z 29010KT 250V340 9999 FEW030 SCT040 22/12 Q1017 NOSIG=
METAR OMAD 220900Z 28008KT 230V320 9999 SCT035 22/12 Q1017 NOSIG=
METAR OMAL 220900Z 33008KT 290V360 9999 FEW030 20/10 Q1018 NOSIG=
METAR OMDB 220900Z 27008KT 240V310 9999 SCT040 23/11 Q1016 NOSIG=
METAR OMDW 220900Z 29011KT 260V330 9999 FEW032 22/11 Q1018 NOSIG=
METAR OMFJ 220900Z 36012KT 9999 FEW025 24/07 Q1016 A3001=
METAR OMSJ 220900Z 26011KT 190V300 9999 SCT040 22/11 Q1017=
METAR OMRK 220900Z 25006KT 9999 SCT040 23/09 Q1017 A3004=
METAR OTBD 220900Z 31007KT 260V340 CAVOK 21/05 Q1018 NOSIG=
METAR OTHH 220900Z 33011KT CAVOK 20/04 Q1018 NOSIG=
METAR OBBI 220900Z 30011KT CAVOK 18/11 Q1018 NOSIG=
METAR OEDF 220900Z 32005KT 7000 NSC 18/03 Q1018 NOSIG=
METAR OEDR 220900Z 34005KT 7000 NSC 19/05 Q1017 NOSIG=
METAR OEJN 220900Z 30004KT CAVOK 29/16 Q1015 NOSIG=
METAR OEMA 220900Z 00000KT CAVOK 24/11 Q1016 NOSIG=
METAR OEPA 220900Z 09010KT CAVOK 16/03 Q1019 NOSIG=
METAR OERF 220900Z 12009KT CAVOK 16/M03 Q1019 NOSIG=
METAR OERK 220900Z 21004KT 3000 DU NSC 22/M03 Q1019 NOSIG=
METAR OERR 220900Z 09010KT CAVOK 12/07 Q1019 NOSIG=
METAR OERY NIL=
METAR OESH 220900Z 12009KT 4500 DU SKC 24/02 Q1018 NOSIG=
METAR OETB 220900Z 00000KT CAVOK 19/01 Q1016 NOSIG=
METAR OETF 220900Z 16004KT CAVOK 22/07 Q1021 NOSIG=
METAR OETR 220900Z 12010KT 9999 SCT030 13/02 Q1017=
METAR OEWD 220900Z 13010KT 8000 SKC 21/03 Q1018 NOSIG=
METAR OEWJ 220900Z 27003KT CAVOK 25/16 Q1015 NOSIG=
METAR OEYN 220900Z 18007KT CAVOK 26/18 Q1013 NOSIG=
METAR OKBK 220900Z 36008KT 6000 NSC 15/01 Q1020 NOSIG=
METAR OOMS 220850Z 34008KT 9999 FEW025 23/13 Q1015 NOSIG=
METAR OOSA 220850Z 16008KT CAVOK 28/M02 Q1016 NOSIG=
METAR OYSN NIL=
METAR OYAA NIL=
 
Tuesday, January 22, 2019 (09:22 UTC)